createdAt,value
2023-04-18T00:00:10.541Z,62.47
2023-04-18T00:02:44.020Z,62.65
2023-04-18T00:05:12.458Z,62.60
2023-04-18T00:07:39.695Z,62.52
2023-04-18T00:10:07.421Z,62.45
2023-04-18T00:12:34.380Z,62.19
2023-04-18T00:15:02.774Z,62.39
2023-04-18T00:17:31.749Z,62.16
2023-04-18T00:19:58.795Z,62.23
2023-04-18T00:22:25.820Z,62.07
2023-04-18T00:24:53.068Z,62.08
2023-04-18T00:27:20.824Z,62.21
2023-04-18T00:29:48.452Z,62.45
2023-04-18T00:32:17.376Z,62.49
2023-04-18T00:34:44.303Z,62.65
2023-04-18T00:37:12.688Z,62.86
2023-04-18T00:39:39.683Z,62.87
2023-04-18T00:42:06.728Z,63.41
2023-04-18T00:44:33.673Z,63.38
2023-04-18T00:47:00.570Z,63.73
2023-04-18T00:49:27.703Z,63.67
2023-04-18T00:51:56.900Z,63.49
2023-04-18T00:54:25.287Z,64.06
2023-04-18T00:56:52.244Z,64.03
2023-04-18T00:59:19.454Z,63.72
2023-04-18T01:01:47.161Z,63.46
2023-04-18T01:04:14.556Z,63.61
2023-04-18T01:06:43.970Z,63.40
2023-04-18T01:09:11.466Z,63.63
2023-04-18T01:11:38.356Z,63.18
2023-04-18T01:14:07.795Z,63.26
2023-04-18T01:16:37.077Z,63.50
2023-04-18T01:19:05.725Z,63.46
2023-04-18T01:21:36.101Z,63.54
2023-04-18T01:24:15.069Z,63.85
2023-04-18T01:26:45.291Z,63.86
2023-04-18T01:29:12.344Z,63.90
2023-04-18T01:31:40.718Z,63.89
2023-04-18T01:34:08.032Z,64.17
2023-04-18T01:36:37.723Z,64.38
2023-04-18T01:39:04.850Z,64.41
2023-04-18T01:41:32.870Z,64.86
2023-04-18T01:44:00.380Z,65.25
2023-04-18T01:46:28.159Z,65.96
2023-04-18T01:48:55.928Z,65.83
2023-04-18T01:51:22.817Z,66.03
2023-04-18T01:53:49.957Z,66.27
2023-04-18T01:56:16.877Z,66.82
2023-04-18T01:58:43.957Z,66.70
2023-04-18T02:01:12.618Z,66.53
2023-04-18T02:03:40.017Z,66.27
2023-04-18T02:06:07.219Z,66.90
2023-04-18T02:08:35.878Z,66.54
2023-04-18T02:11:05.434Z,66.58
2023-04-18T02:13:32.483Z,66.52
2023-04-18T02:15:59.445Z,66.33
2023-04-18T02:18:26.765Z,66.52
2023-04-18T02:20:53.730Z,66.47
2023-04-18T02:23:22.196Z,66.52
2023-04-18T02:25:49.148Z,66.32
2023-04-18T02:28:17.805Z,66.53
2023-04-18T02:30:44.855Z,66.31
2023-04-18T02:33:11.784Z,66.13
2023-04-18T02:35:38.917Z,65.77
2023-04-18T02:38:05.833Z,65.82
2023-04-18T02:40:32.779Z,65.72
2023-04-18T02:42:59.831Z,65.65
2023-04-18T02:45:26.786Z,65.75
2023-04-18T02:47:56.653Z,65.84
2023-04-18T02:50:25.070Z,65.50
2023-04-18T02:52:53.738Z,65.41
2023-04-18T02:55:22.689Z,65.00
2023-04-18T02:57:49.751Z,65.07
2023-04-18T03:00:36.989Z,64.92
2023-04-18T03:03:17.275Z,65.21
2023-04-18T03:05:58.602Z,64.99
2023-04-18T03:08:25.794Z,64.64
2023-04-18T03:10:54.199Z,64.90
2023-04-18T03:13:24.222Z,64.53
2023-04-18T03:15:51.519Z,64.36
2023-04-18T03:18:19.022Z,64.36
2023-04-18T03:20:46.346Z,64.08
2023-04-18T03:23:13.346Z,63.92
2023-04-18T03:25:40.237Z,63.52
2023-04-18T03:28:07.143Z,63.50
2023-04-18T03:30:34.877Z,63.44
2023-04-18T03:33:05.180Z,63.19
2023-04-18T03:35:32.478Z,63.22
2023-04-18T03:37:59.981Z,63.14
2023-04-18T03:40:33.372Z,63.32
2023-04-18T03:43:06.595Z,63.28
2023-04-18T03:45:33.576Z,63.37
2023-04-18T03:48:00.599Z,63.26
2023-04-18T03:50:29.015Z,63.51
2023-04-18T03:52:57.374Z,62.95
2023-04-18T03:55:26.232Z,63.35
2023-04-18T03:57:53.305Z,63.26
2023-04-18T04:00:26.788Z,63.00
2023-04-18T04:03:01.574Z,62.75
2023-04-18T04:05:28.746Z,63.33
2023-04-18T04:07:56.481Z,63.31
2023-04-18T04:10:23.708Z,63.22
2023-04-18T04:12:51.470Z,63.44
2023-04-18T04:15:18.729Z,63.42
2023-04-18T04:17:51.761Z,63.76
2023-04-18T04:20:24.080Z,63.79
2023-04-18T04:22:58.850Z,63.65
2023-04-18T04:25:29.766Z,63.82
2023-04-18T04:28:01.536Z,63.76
2023-04-18T04:30:29.332Z,63.55
2023-04-18T04:32:56.884Z,63.40
2023-04-18T04:35:23.938Z,63.54
2023-04-18T04:37:51.744Z,63.50
2023-04-18T04:40:25.563Z,63.59
2023-04-18T04:42:56.772Z,63.76
2023-04-18T04:45:30.212Z,63.90
2023-04-18T04:47:57.277Z,63.65
2023-04-18T04:50:24.166Z,63.92
2023-04-18T04:52:51.287Z,63.98
2023-04-18T04:55:18.879Z,63.82
2023-04-18T04:57:45.901Z,64.17
2023-04-18T05:00:31.069Z,64.03
2023-04-18T05:02:58.319Z,63.67
2023-04-18T05:05:26.865Z,63.89
2023-04-18T05:07:54.321Z,63.66
2023-04-18T05:10:21.682Z,63.84
2023-04-18T05:12:48.570Z,63.84
2023-04-18T05:15:16.557Z,63.46
2023-04-18T05:17:43.462Z,63.59
2023-04-18T05:20:11.390Z,63.74
2023-04-18T05:22:38.367Z,63.84
2023-04-18T05:25:06.288Z,63.92
2023-04-18T05:27:33.176Z,64.01
2023-04-18T05:30:00.063Z,64.28
2023-04-18T05:32:27.038Z,64.25
2023-04-18T05:34:53.927Z,64.33
2023-04-18T05:37:22.229Z,64.02
2023-04-18T05:39:49.118Z,64.17
2023-04-18T05:42:16.038Z,63.84
2023-04-18T05:44:42.944Z,63.98
2023-04-18T05:47:09.871Z,64.25
2023-04-18T05:49:36.816Z,64.31
2023-04-18T05:52:03.759Z,64.14
2023-04-18T05:54:30.716Z,64.36
2023-04-18T05:56:57.624Z,64.02
2023-04-18T05:59:26.801Z,63.63
2023-04-18T06:01:54.022Z,63.71
2023-04-18T06:04:21.698Z,63.92
2023-04-18T06:06:48.775Z,64.19
2023-04-18T06:09:15.668Z,63.92
2023-04-18T06:11:42.590Z,64.22
2023-04-18T06:14:09.499Z,63.81
2023-04-18T06:16:37.544Z,63.75
2023-04-18T06:19:05.244Z,63.68
2023-04-18T06:21:32.235Z,63.43
2023-04-18T06:24:01.222Z,63.53
2023-04-18T06:26:28.161Z,63.31
2023-04-18T06:28:55.060Z,63.26
2023-04-18T06:31:22.230Z,63.71
2023-04-18T06:33:49.154Z,63.86
2023-04-18T06:36:16.050Z,63.64
2023-04-18T06:38:42.967Z,63.99
2023-04-18T06:41:09.876Z,63.60
2023-04-18T06:43:36.818Z,63.80
2023-04-18T06:46:05.994Z,64.02
2023-04-18T06:48:33.205Z,63.86
2023-04-18T06:51:00.071Z,63.93
2023-04-18T06:53:27.013Z,63.85
2023-04-18T06:55:54.099Z,63.60
2023-04-18T06:58:21.011Z,63.54
2023-04-18T07:00:51.828Z,63.70
2023-04-18T07:03:19.061Z,63.98
2023-04-18T07:05:46.183Z,63.67
2023-04-18T07:08:13.137Z,63.64
2023-04-18T07:10:40.090Z,63.53
2023-04-18T07:13:06.973Z,63.41
2023-04-18T07:15:36.016Z,63.06
2023-04-18T07:18:02.942Z,63.26
2023-04-18T07:20:29.896Z,63.26
2023-04-18T07:22:56.817Z,63.00
2023-04-18T07:25:23.699Z,62.28
2023-04-18T07:27:50.581Z,62.86
2023-04-18T07:30:17.530Z,62.91
2023-04-18T07:32:44.835Z,62.84
2023-04-18T07:35:11.820Z,62.32
2023-04-18T07:37:38.766Z,61.62
2023-04-18T07:40:06.576Z,61.40
2023-04-18T07:42:33.480Z,61.31
2023-04-18T07:45:00.441Z,60.56
2023-04-18T07:47:29.958Z,60.56
2023-04-18T07:49:57.885Z,60.38
2023-04-18T07:52:24.830Z,60.05
2023-04-18T07:54:51.752Z,60.22
2023-04-18T07:57:18.633Z,60.25
2023-04-18T07:59:45.778Z,60.34
2023-04-18T08:02:12.679Z,60.30
2023-04-18T08:04:39.687Z,59.96
2023-04-18T08:07:06.622Z,59.88
2023-04-18T08:09:34.214Z,59.98
2023-04-18T08:12:01.143Z,59.68
2023-04-18T08:14:28.017Z,60.00
2023-04-18T08:16:54.964Z,59.87
2023-04-18T08:19:21.870Z,59.47
2023-04-18T08:21:51.162Z,59.68
2023-04-18T08:24:18.119Z,59.50
2023-04-18T08:26:45.246Z,59.17
2023-04-18T08:29:12.334Z,58.90
2023-04-18T08:31:40.221Z,58.56
2023-04-18T08:34:07.169Z,58.92
2023-04-18T08:36:35.487Z,58.52
2023-04-18T08:39:02.375Z,58.47
2023-04-18T08:41:34.941Z,58.26
2023-04-18T08:44:02.101Z,58.13
2023-04-18T08:46:30.115Z,58.51
2023-04-18T08:48:59.700Z,58.28
2023-04-18T08:51:32.545Z,57.53
2023-04-18T08:54:03.265Z,57.39
2023-04-18T08:56:30.870Z,57.12
2023-04-18T08:59:01.158Z,56.87
2023-04-18T09:01:56.301Z,56.84
2023-04-18T09:04:43.101Z,57.40
2023-04-18T09:07:15.829Z,57.16
2023-04-18T09:09:52.233Z,56.38
2023-04-18T09:12:25.425Z,56.61
2023-04-18T09:15:09.399Z,56.96
2023-04-18T09:17:51.287Z,56.82
2023-04-18T09:20:35.194Z,57.33
2023-04-18T09:23:11.209Z,56.46
2023-04-18T09:25:48.159Z,56.28
2023-04-18T09:28:31.787Z,56.41
2023-04-18T09:31:16.212Z,56.38
2023-04-18T09:33:56.658Z,55.55
2023-04-18T09:36:27.693Z,55.76
2023-04-18T09:38:57.064Z,55.17
2023-04-18T09:41:24.721Z,54.44
2023-04-18T09:44:12.528Z,53.75
2023-04-18T09:46:42.481Z,53.50
2023-04-18T09:49:11.097Z,53.91
2023-04-18T09:51:40.339Z,53.71
2023-04-18T09:54:09.371Z,53.70
2023-04-18T09:56:39.513Z,53.68
2023-04-18T09:59:11.343Z,53.20
2023-04-18T10:01:41.196Z,53.66
2023-04-18T10:04:08.809Z,53.47
2023-04-18T10:06:41.887Z,53.76
2023-04-18T10:09:10.114Z,53.56
2023-04-18T10:11:37.329Z,52.94
2023-04-18T10:14:10.000Z,52.85
2023-04-18T10:16:37.913Z,52.92
2023-04-18T10:19:28.316Z,52.64
2023-04-18T10:22:00.350Z,52.34
2023-04-18T10:24:49.631Z,51.29
2023-04-18T10:27:17.807Z,51.07
2023-04-18T10:29:52.765Z,50.76
2023-04-18T10:32:23.526Z,50.63
2023-04-18T10:34:53.361Z,51.10
2023-04-18T10:37:20.297Z,50.80
2023-04-18T10:40:00.924Z,51.05
2023-04-18T10:42:53.963Z,50.27
2023-04-18T10:45:25.611Z,50.50
2023-04-18T10:48:24.136Z,50.47
2023-04-18T10:51:17.909Z,51.36
2023-04-18T10:53:52.238Z,50.92
2023-04-18T10:56:19.277Z,50.48
2023-04-18T10:58:51.813Z,50.91
2023-04-18T11:01:38.197Z,49.70
2023-04-18T11:04:13.811Z,49.03
2023-04-18T11:06:57.268Z,49.29
2023-04-18T11:09:25.161Z,48.88
2023-04-18T11:12:10.549Z,48.94
2023-04-18T11:14:45.654Z,48.48
2023-04-18T11:17:26.448Z,48.47
2023-04-18T11:20:14.258Z,48.44
2023-04-18T11:22:50.231Z,48.95
2023-04-18T11:25:19.324Z,49.04
2023-04-18T11:27:51.465Z,48.49
2023-04-18T11:30:18.804Z,48.55
2023-04-18T11:32:45.787Z,47.30
2023-04-18T11:35:15.501Z,46.99
2023-04-18T11:37:45.334Z,46.97
2023-04-18T11:40:13.715Z,46.19
2023-04-18T11:42:41.885Z,46.07
2023-04-18T11:45:15.881Z,46.32
2023-04-18T11:47:44.842Z,46.42
2023-04-18T11:50:13.800Z,46.98
2023-04-18T11:52:42.510Z,47.42
2023-04-18T11:55:19.522Z,47.71
2023-04-18T11:58:00.450Z,47.01
2023-04-18T12:00:39.308Z,46.10
2023-04-18T12:03:15.616Z,46.30
2023-04-18T12:05:43.156Z,46.40
2023-04-18T12:08:19.559Z,46.20
2023-04-18T12:10:52.417Z,46.53
2023-04-18T12:13:25.671Z,46.24
2023-04-18T12:15:53.467Z,46.03
2023-04-18T12:18:20.474Z,45.77
2023-04-18T12:20:53.916Z,46.22
2023-04-18T12:23:42.411Z,45.73
2023-04-18T12:26:21.018Z,45.43
2023-04-18T12:28:51.209Z,45.67
2023-04-18T12:31:18.319Z,45.97
2023-04-18T12:33:45.263Z,45.89
2023-04-18T12:36:12.176Z,45.83
2023-04-18T12:38:39.065Z,45.64
2023-04-18T12:41:06.271Z,45.38
2023-04-18T12:43:33.183Z,45.07
2023-04-18T12:46:00.225Z,44.30
2023-04-18T12:48:28.002Z,44.99
2023-04-18T12:50:54.854Z,45.03
2023-04-18T12:53:21.914Z,44.84
2023-04-18T12:55:48.749Z,44.71
2023-04-18T12:58:18.507Z,43.27
2023-04-18T13:00:45.845Z,44.60
2023-04-18T13:03:13.377Z,44.35
2023-04-18T13:05:40.929Z,45.04
2023-04-18T13:08:17.218Z,44.74
2023-04-18T13:10:48.043Z,44.39
2023-04-18T13:13:14.995Z,44.34
2023-04-18T13:15:42.513Z,45.17
2023-04-18T13:18:09.483Z,44.98
2023-04-18T13:20:36.649Z,44.61
2023-04-18T13:23:03.886Z,44.40
2023-04-18T13:25:30.859Z,44.98
2023-04-18T13:27:58.516Z,44.86
2023-04-18T13:30:25.623Z,45.40
2023-04-18T13:32:52.607Z,46.00
2023-04-18T13:35:19.598Z,46.49
2023-04-18T13:37:46.486Z,46.04
2023-04-18T13:40:13.876Z,46.36
2023-04-18T13:42:41.058Z,46.08
2023-04-18T13:45:08.347Z,45.96
2023-04-18T13:47:35.844Z,46.29
2023-04-18T13:50:02.788Z,45.66
2023-04-18T13:52:29.757Z,45.98
2023-04-18T13:54:56.661Z,45.88
2023-04-18T13:57:23.636Z,45.04
2023-04-18T13:59:50.530Z,45.32
2023-04-18T14:02:17.640Z,45.48
2023-04-18T14:04:44.850Z,45.57
2023-04-18T14:07:11.839Z,45.94
2023-04-18T14:09:38.719Z,46.27
2023-04-18T14:12:06.011Z,45.89
2023-04-18T14:14:32.929Z,45.58
2023-04-18T14:16:59.819Z,46.28
2023-04-18T14:19:27.304Z,46.37
2023-04-18T14:21:54.258Z,46.47
2023-04-18T14:24:21.231Z,46.00
2023-04-18T14:26:48.201Z,46.10
2023-04-18T14:29:15.284Z,45.48
2023-04-18T14:31:42.408Z,45.62
2023-04-18T14:34:09.811Z,45.65
2023-04-18T14:36:37.244Z,45.72
2023-04-18T14:39:04.776Z,45.89
2023-04-18T14:41:31.747Z,46.17
2023-04-18T14:43:59.119Z,46.57
2023-04-18T14:46:28.206Z,46.63
2023-04-18T14:48:55.257Z,47.09
2023-04-18T14:51:23.206Z,47.77
2023-04-18T14:53:50.187Z,48.22
2023-04-18T14:56:20.901Z,48.25
2023-04-18T14:58:47.887Z,48.14
2023-04-18T15:01:14.856Z,48.02
2023-04-18T15:03:41.881Z,46.92
2023-04-18T15:06:08.869Z,46.99
2023-04-18T15:08:35.997Z,46.47
2023-04-18T15:11:07.989Z,46.80
2023-04-18T15:13:34.920Z,46.23
2023-04-18T15:16:02.033Z,46.65
2023-04-18T15:18:28.967Z,46.70
2023-04-18T15:20:56.963Z,47.02
2023-04-18T15:23:23.972Z,47.21
2023-04-18T15:25:50.912Z,47.52
2023-04-18T15:28:18.644Z,48.11
2023-04-18T15:30:46.334Z,47.81
2023-04-18T15:33:13.966Z,48.01
2023-04-18T15:35:40.910Z,47.06
2023-04-18T15:38:07.867Z,46.75
2023-04-18T15:40:36.226Z,46.00
2023-04-18T15:43:04.027Z,45.46
2023-04-18T15:45:31.269Z,45.16
2023-04-18T15:47:58.586Z,44.02
2023-04-18T15:50:26.094Z,44.41
2023-04-18T15:52:53.025Z,44.78
2023-04-18T15:55:19.925Z,42.05
2023-04-18T15:57:46.916Z,41.69
2023-04-18T16:00:17.558Z,40.42
2023-04-18T16:02:45.835Z,39.17
2023-04-18T16:05:13.291Z,38.82
2023-04-18T16:07:41.326Z,39.00
2023-04-18T16:10:10.519Z,38.57
2023-04-18T16:12:38.276Z,38.21
2023-04-18T16:15:07.069Z,37.71
2023-04-18T16:17:35.526Z,37.77
2023-04-18T16:20:02.633Z,37.11
2023-04-18T16:22:29.600Z,37.06
2023-04-18T16:24:56.574Z,36.63
2023-04-18T16:27:23.518Z,37.03
2023-04-18T16:29:50.582Z,37.22
2023-04-18T16:32:17.462Z,37.52
2023-04-18T16:34:44.362Z,37.00
2023-04-18T16:37:11.281Z,37.40
2023-04-18T16:39:38.209Z,37.77
2023-04-18T16:42:05.300Z,37.30
2023-04-18T16:44:33.145Z,37.80
2023-04-18T16:47:00.257Z,37.05
2023-04-18T16:49:27.331Z,37.31
2023-04-18T16:51:54.252Z,37.52
2023-04-18T16:54:21.212Z,37.70
2023-04-18T16:56:48.307Z,37.13
2023-04-18T16:59:15.280Z,37.83
2023-04-18T17:01:42.212Z,37.28
2023-04-18T17:04:09.165Z,37.40
2023-04-18T17:06:36.129Z,37.59
2023-04-18T17:09:06.168Z,37.03
2023-04-18T17:11:38.803Z,37.25
2023-04-18T17:14:08.030Z,37.18
2023-04-18T17:16:38.692Z,36.70
2023-04-18T17:19:06.438Z,36.04
2023-04-18T17:21:34.960Z,35.74
2023-04-18T17:24:03.928Z,35.97
2023-04-18T17:26:31.166Z,36.46
2023-04-18T17:28:58.165Z,36.32
2023-04-18T17:31:25.179Z,36.72
2023-04-18T17:33:52.143Z,36.35
2023-04-18T17:36:19.059Z,36.91
2023-04-18T17:38:48.918Z,36.53
2023-04-18T17:41:17.942Z,36.24
2023-04-18T17:43:45.871Z,36.03
2023-04-18T17:46:13.589Z,36.41
2023-04-18T17:48:41.267Z,37.05
2023-04-18T17:51:08.173Z,36.93
2023-04-18T17:53:35.088Z,37.18
2023-04-18T17:56:03.445Z,37.74
2023-04-18T17:58:30.476Z,37.99
2023-04-18T18:00:57.497Z,38.01
2023-04-18T18:03:24.617Z,38.35
2023-04-18T18:05:51.904Z,39.01
2023-04-18T18:08:18.794Z,39.13
2023-04-18T18:10:47.048Z,39.10
2023-04-18T18:13:13.991Z,39.46
2023-04-18T18:15:40.866Z,39.54
2023-04-18T18:18:07.848Z,40.32
2023-04-18T18:20:34.822Z,40.41
2023-04-18T18:23:02.270Z,41.07
2023-04-18T18:25:29.193Z,41.40
2023-04-18T18:27:56.108Z,41.71
2023-04-18T18:30:23.003Z,42.08
2023-04-18T18:32:49.908Z,41.79
2023-04-18T18:35:16.814Z,42.07
2023-04-18T18:37:43.733Z,42.54
2023-04-18T18:40:11.142Z,42.42
2023-04-18T18:42:38.070Z,42.93
2023-04-18T18:45:05.973Z,43.32
2023-04-18T18:47:34.153Z,43.74
2023-04-18T18:50:01.403Z,44.13
2023-04-18T18:52:29.684Z,44.13
2023-04-18T18:54:56.646Z,44.23
2023-04-18T18:57:23.549Z,44.20
2023-04-18T18:59:50.488Z,44.56
2023-04-18T19:02:17.568Z,44.84
2023-04-18T19:04:44.809Z,44.99
2023-04-18T19:07:11.776Z,44.72
2023-04-18T19:09:38.716Z,44.95
2023-04-18T19:12:06.157Z,45.28
2023-04-18T19:14:33.202Z,45.42
2023-04-18T19:17:00.274Z,45.96
2023-04-18T19:19:27.244Z,46.86
2023-04-18T19:21:54.147Z,47.05
2023-04-18T19:24:21.061Z,47.17
2023-04-18T19:26:48.053Z,47.59
2023-04-18T19:29:15.227Z,47.48
2023-04-18T19:31:43.590Z,48.09
2023-04-18T19:34:11.814Z,48.39
2023-04-18T19:36:38.758Z,48.39
2023-04-18T19:39:05.735Z,49.21
2023-04-18T19:41:32.627Z,49.42
2023-04-18T19:43:59.544Z,49.60
2023-04-18T19:46:26.834Z,49.46
2023-04-18T19:48:53.836Z,49.32
2023-04-18T19:51:20.742Z,49.77
2023-04-18T19:53:47.665Z,49.45
2023-04-18T19:56:14.945Z,49.65
2023-04-18T19:58:46.592Z,49.12
2023-04-18T20:01:21.264Z,49.44
2023-04-18T20:03:48.712Z,50.25
2023-04-18T20:06:17.102Z,50.74
2023-04-18T20:08:45.855Z,50.97
2023-04-18T20:11:16.634Z,51.63
2023-04-18T20:13:43.594Z,52.35
2023-04-18T20:16:12.154Z,52.35
2023-04-18T20:18:41.471Z,53.09
2023-04-18T20:21:10.020Z,53.17
2023-04-18T20:23:37.813Z,53.44
2023-04-18T20:26:04.880Z,53.32
2023-04-18T20:28:32.036Z,53.35
2023-04-18T20:30:59.106Z,53.46
2023-04-18T20:33:26.074Z,53.79
2023-04-18T20:35:54.535Z,53.73
2023-04-18T20:38:26.122Z,53.75
2023-04-18T20:40:54.152Z,54.32
2023-04-18T20:43:21.371Z,54.48
2023-04-18T20:45:51.525Z,54.43
2023-04-18T20:48:18.677Z,53.87
2023-04-18T20:50:51.154Z,54.36
2023-04-18T20:53:22.308Z,54.24
2023-04-18T20:55:49.439Z,54.10
2023-04-18T20:58:16.761Z,54.17
2023-04-18T21:00:44.590Z,53.92
2023-04-18T21:03:15.678Z,53.99
2023-04-18T21:05:44.633Z,54.27
2023-04-18T21:08:11.528Z,54.11
2023-04-18T21:10:38.586Z,54.44
2023-04-18T21:13:05.659Z,54.29
2023-04-18T21:15:32.654Z,54.60
2023-04-18T21:17:59.723Z,54.78
2023-04-18T21:20:26.850Z,54.87
2023-04-18T21:22:53.764Z,54.64
2023-04-18T21:25:21.293Z,54.25
2023-04-18T21:27:50.414Z,54.46
2023-04-18T21:30:17.439Z,54.41
2023-04-18T21:32:45.002Z,54.34
2023-04-18T21:35:11.941Z,53.90
2023-04-18T21:37:38.843Z,53.59
2023-04-18T21:40:06.898Z,53.81
2023-04-18T21:42:35.410Z,53.58
2023-04-18T21:45:02.504Z,53.38
2023-04-18T21:47:29.393Z,53.46
2023-04-18T21:49:56.337Z,53.57
2023-04-18T21:52:23.234Z,53.50
2023-04-18T21:54:50.247Z,53.87
2023-04-18T21:57:17.158Z,54.17
2023-04-18T21:59:44.036Z,54.38
2023-04-18T22:02:11.347Z,54.73
2023-04-18T22:04:42.571Z,54.80
2023-04-18T22:07:10.032Z,54.86
2023-04-18T22:09:37.076Z,54.86
2023-04-18T22:12:04.324Z,54.62
2023-04-18T22:14:32.231Z,54.54
2023-04-18T22:17:01.671Z,54.53
2023-04-18T22:19:29.372Z,54.54
2023-04-18T22:21:56.562Z,54.70
2023-04-18T22:24:24.559Z,54.68
2023-04-18T22:26:51.999Z,54.72
2023-04-18T22:29:18.883Z,54.40
2023-04-18T22:31:45.776Z,54.38
2023-04-18T22:34:12.771Z,54.38
2023-04-18T22:36:39.801Z,54.12
2023-04-18T22:39:07.333Z,54.03
2023-04-18T22:41:34.200Z,53.90
2023-04-18T22:44:01.072Z,54.12
2023-04-18T22:46:28.001Z,53.94
2023-04-18T22:48:55.151Z,53.63
2023-04-18T22:51:23.383Z,53.74
2023-04-18T22:53:50.388Z,53.77
2023-04-18T22:56:17.355Z,53.72
2023-04-18T22:58:44.232Z,53.83
2023-04-18T23:01:11.226Z,54.23
2023-04-18T23:03:38.357Z,54.47
2023-04-18T23:06:07.886Z,54.42
2023-04-18T23:08:34.914Z,54.73
2023-04-18T23:11:01.769Z,54.71
2023-04-18T23:13:28.649Z,54.83
2023-04-18T23:15:55.627Z,54.88
2023-04-18T23:18:22.508Z,54.72
2023-04-18T23:20:49.383Z,54.83
2023-04-18T23:23:16.257Z,54.51
2023-04-18T23:25:44.086Z,54.44
2023-04-18T23:28:11.028Z,54.57
2023-04-18T23:30:37.917Z,54.62
2023-04-18T23:33:04.903Z,54.57
2023-04-18T23:35:31.773Z,54.77
2023-04-18T23:37:58.747Z,55.00
2023-04-18T23:40:25.697Z,54.78
2023-04-18T23:42:52.571Z,54.71
2023-04-18T23:45:19.505Z,54.68
2023-04-18T23:47:46.513Z,54.75
2023-04-18T23:50:13.449Z,54.69
2023-04-18T23:52:40.555Z,54.46
2023-04-18T23:55:07.980Z,54.49
2023-04-18T23:57:34.880Z,54.45
